Douglaston, New York
Current Conditions -  °F | °C
As of 9:51 PM on Thursday 20 Nov 2014 (Local Time) from KLGA Reporting Station
Few Clouds Few Clouds  
Wind Chill: 26°   Ceiling: Unl
Heat Index: 35°   Visibility: 10mi
Dew Point: 12°   Wind: 14mph
Humidity: 39%   Direction: 290°WNW
Pressure: 29.99"   Gusts: NA
Location:  40.7726°N, 73.7467°W
Report Text: KLGA 210251Z 29012KT 10SM FEW080 02/M11 A2999 RMK AO2 SLP155 T00171111 53021
Loading
Personal Weather Stations






























Interactive Weather Map New forecast layout! Learn more

10-Day Weather Forecast

Advertisements
Track Severe Weather on mobile